createdAt,value
2018-09-24T00:02:24.390Z,100821.03
2018-09-24T00:04:52.770Z,100821.80
2018-09-24T00:07:23.501Z,100832.20
2018-09-24T00:09:52.708Z,100843.21
2018-09-24T00:12:23.892Z,100842.53
2018-09-24T00:14:52.223Z,100847.17
2018-09-24T00:17:20.595Z,100853.05
2018-09-24T00:19:48.921Z,100854.20
2018-09-24T00:22:17.272Z,100868.16
2018-09-24T00:24:46.633Z,100871.16
2018-09-24T00:27:15.014Z,100871.89
2018-09-24T00:29:43.354Z,100879.52
2018-09-24T00:32:12.729Z,100884.72
2018-09-24T00:34:41.100Z,100896.13
2018-09-24T00:37:10.461Z,100894.26
2018-09-24T00:39:38.821Z,100898.93
2018-09-24T00:42:07.166Z,100903.25
2018-09-24T00:44:37.488Z,100901.94
2018-09-24T00:47:06.783Z,100906.72
2018-09-24T00:49:35.557Z,100910.61
2018-09-24T00:52:05.880Z,100916.48
2018-09-24T00:54:35.621Z,100927.09
2018-09-24T00:57:05.616Z,100920.23
2018-09-24T00:59:35.606Z,100922.10
2018-09-24T01:02:05.100Z,100932.59
2018-09-24T01:04:35.097Z,100932.31
2018-09-24T01:07:05.266Z,100946.59
2018-09-24T01:09:34.343Z,100945.64
2018-09-24T01:12:03.642Z,100940.52
2018-09-24T01:14:32.897Z,100953.38
2018-09-24T01:17:02.238Z,100960.72
2018-09-24T01:19:31.454Z,100974.42
2018-09-24T01:21:59.776Z,100976.19
2018-09-24T01:24:28.098Z,100979.84
2018-09-24T01:26:56.448Z,100988.97
2018-09-24T01:29:25.613Z,100993.45
2018-09-24T01:31:54.535Z,101004.09
2018-09-24T01:34:23.467Z,101004.91
2018-09-24T01:36:51.916Z,101013.12
2018-09-24T01:39:20.261Z,101017.70
2018-09-24T01:41:48.705Z,101032.78
2018-09-24T01:44:17.036Z,101031.66
2018-09-24T01:46:45.469Z,101035.00
2018-09-24T01:49:14.100Z,101032.95
2018-09-24T01:51:42.421Z,101034.64
2018-09-24T01:54:10.744Z,101037.60
2018-09-24T01:56:39.221Z,101043.20
2018-09-24T01:59:07.551Z,101052.50
2018-09-24T02:01:37.570Z,101058.92
2018-09-24T02:04:06.718Z,101065.27
2018-09-24T02:06:36.070Z,101065.94
2018-09-24T02:09:05.914Z,101061.81
2018-09-24T02:11:34.813Z,101067.31
2018-09-24T02:14:03.135Z,101086.05
2018-09-24T02:16:31.470Z,101088.15
2018-09-24T02:19:00.303Z,101098.07
2018-09-24T02:21:28.681Z,101099.91
2018-09-24T02:24:01.677Z,101095.67
2018-09-24T02:26:29.998Z,101107.66
2018-09-24T02:28:59.349Z,101115.55
2018-09-24T02:31:28.718Z,101112.17
2018-09-24T02:33:57.961Z,101126.15
2018-09-24T02:36:27.185Z,101126.90
2018-09-24T02:38:56.458Z,101132.66
2018-09-24T02:41:25.810Z,101141.23
2018-09-24T02:43:56.146Z,101140.16
2018-09-24T02:46:26.481Z,101149.41
2018-09-24T02:48:59.626Z,101156.97
2018-09-24T02:51:28.005Z,101156.61
2018-09-24T02:53:57.365Z,101155.64
2018-09-24T02:56:26.581Z,101164.95
2018-09-24T02:58:55.869Z,101160.52
2018-09-24T03:01:25.942Z,101162.83
2018-09-24T03:03:55.645Z,101173.70
2018-09-24T03:06:25.032Z,101172.05
2018-09-24T03:08:54.441Z,101181.42
2018-09-24T03:11:22.813Z,101179.21
2018-09-24T03:13:54.059Z,101179.63
2018-09-24T03:16:23.305Z,101177.52
2018-09-24T03:18:58.606Z,101182.42
2018-09-24T03:21:28.102Z,101185.58
2018-09-24T03:23:56.438Z,101180.33
2018-09-24T03:26:26.630Z,101189.25
2018-09-24T03:28:55.299Z,101199.47
2018-09-24T03:31:25.500Z,101200.13
2018-09-24T03:33:55.164Z,101189.90
2018-09-24T03:36:25.525Z,101204.02
2018-09-24T03:38:55.970Z,101201.16
2018-09-24T03:41:26.273Z,101220.10
2018-09-24T03:43:54.653Z,101217.75
2018-09-24T03:46:23.694Z,101224.16
2018-09-24T03:48:52.013Z,101229.22
2018-09-24T03:51:21.393Z,101227.77
2018-09-24T03:53:49.717Z,101223.02
2018-09-24T03:56:19.038Z,101223.31
2018-09-24T03:58:47.478Z,101218.24
2018-09-24T04:01:16.700Z,101235.47
2018-09-24T04:03:45.060Z,101238.77
2018-09-24T04:06:19.645Z,101243.22
2018-09-24T04:08:54.472Z,101242.52
2018-09-24T04:11:29.180Z,101240.88
2018-09-24T04:14:02.917Z,101248.48
2018-09-24T04:16:37.695Z,101258.09
2018-09-24T04:19:12.430Z,101255.70
2018-09-24T04:21:46.069Z,101255.36
2018-09-24T04:24:19.830Z,101265.48
2018-09-24T04:26:54.723Z,101265.72
2018-09-24T04:29:28.540Z,101267.41
2018-09-24T04:32:02.194Z,101274.71
2018-09-24T04:34:35.923Z,101277.16
2018-09-24T04:37:11.578Z,101268.38
2018-09-24T04:39:46.287Z,101284.13
2018-09-24T04:42:20.077Z,101294.23
2018-09-24T04:44:54.881Z,101278.16
2018-09-24T04:47:29.586Z,101280.52
2018-09-24T04:50:05.125Z,101285.91
2018-09-24T04:52:39.839Z,101289.09
2018-09-24T04:55:13.640Z,101296.81
2018-09-24T04:57:48.353Z,101296.14
2018-09-24T05:00:22.028Z,101303.41
2018-09-24T05:02:56.621Z,101310.41
2018-09-24T05:05:31.753Z,101306.02
2018-09-24T05:08:06.295Z,101305.50
2018-09-24T05:10:39.929Z,101304.34
2018-09-24T05:13:13.897Z,101310.09
2018-09-24T05:15:47.718Z,101325.39
2018-09-24T05:18:21.301Z,101323.55
2018-09-24T05:20:54.869Z,101324.48
2018-09-24T05:23:28.613Z,101330.59
2018-09-24T05:26:02.185Z,101325.06
2018-09-24T05:28:35.929Z,101331.52
2018-09-24T05:31:09.914Z,101337.80
2018-09-24T05:33:43.611Z,101338.33
2018-09-24T05:36:17.376Z,101337.33
2018-09-24T05:38:51.062Z,101350.57
2018-09-24T05:41:24.816Z,101347.03
2018-09-24T05:43:58.393Z,101346.97
2018-09-24T05:46:32.536Z,101347.39
2018-09-24T05:49:06.234Z,101356.13
2018-09-24T05:51:39.977Z,101356.21
2018-09-24T05:54:13.787Z,101361.42
2018-09-24T05:56:47.387Z,101365.36
2018-09-24T05:59:21.126Z,101373.99
2018-09-24T06:01:54.805Z,101369.72
2018-09-24T06:04:28.501Z,101382.27
2018-09-24T06:07:02.210Z,101386.94
2018-09-24T06:09:36.997Z,101387.84
2018-09-24T06:12:11.520Z,101390.35
2018-09-24T06:14:45.034Z,101402.48
2018-09-24T06:17:18.748Z,101398.02
2018-09-24T06:19:52.445Z,101403.73
2018-09-24T06:22:26.107Z,101414.16
2018-09-24T06:24:59.897Z,101413.07
2018-09-24T06:27:34.169Z,101419.94
2018-09-24T06:30:07.889Z,101418.34
2018-09-24T06:32:42.429Z,101426.97
2018-09-24T06:35:16.045Z,101424.25
2018-09-24T06:37:50.789Z,101430.61
2018-09-24T06:40:25.502Z,101438.30
2018-09-24T06:43:01.145Z,101443.30
2018-09-24T06:45:35.184Z,101456.05
2018-09-24T06:48:08.856Z,101447.22
2018-09-24T06:50:42.645Z,101455.84
2018-09-24T06:53:16.337Z,101448.31
2018-09-24T06:55:49.905Z,101452.62
2018-09-24T06:58:24.702Z,101474.70
2018-09-24T07:00:58.300Z,101476.86
2018-09-24T07:03:32.107Z,101474.19
2018-09-24T07:06:06.863Z,101458.30
2018-09-24T07:08:40.568Z,101479.48
2018-09-24T07:11:15.360Z,101484.09
2018-09-24T07:13:55.709Z,101494.87
2018-09-24T07:16:31.445Z,101498.69
2018-09-24T07:19:06.049Z,101499.56
2018-09-24T07:21:39.777Z,101499.70
2018-09-24T07:24:14.361Z,101504.16
2018-09-24T07:26:47.913Z,101516.45
2018-09-24T07:29:21.630Z,101521.61
2018-09-24T07:31:56.369Z,101519.55
2018-09-24T07:34:32.546Z,101523.47
2018-09-24T07:37:06.256Z,101530.58
2018-09-24T07:39:41.953Z,101534.41
2018-09-24T07:42:15.417Z,101542.72
2018-09-24T07:44:49.164Z,101530.77
2018-09-24T07:47:25.450Z,101541.70
2018-09-24T07:50:00.257Z,101553.30
2018-09-24T07:52:34.858Z,101554.78
2018-09-24T07:55:09.582Z,101564.14
2018-09-24T07:57:43.369Z,101569.17
2018-09-24T08:00:18.161Z,101568.63
2018-09-24T08:02:53.709Z,101568.27
2018-09-24T08:05:28.273Z,101575.73
2018-09-24T08:08:03.007Z,101578.49
2018-09-24T08:10:37.766Z,101572.91
2018-09-24T08:13:12.389Z,101585.29
2018-09-24T08:15:46.189Z,101587.70
2018-09-24T08:18:21.041Z,101593.13
2018-09-24T08:20:55.671Z,101605.67
2018-09-24T08:23:31.399Z,101617.80
2018-09-24T08:26:05.985Z,101604.62
2018-09-24T08:28:41.675Z,101615.41
2018-09-24T08:31:15.300Z,101621.36
2018-09-24T08:33:49.032Z,101622.88
2018-09-24T08:36:22.799Z,101628.86
2018-09-24T08:38:56.409Z,101640.16
2018-09-24T08:41:29.981Z,101637.81
2018-09-24T08:44:05.165Z,101644.00
2018-09-24T08:46:38.732Z,101645.66
2018-09-24T08:49:13.413Z,101652.77
2018-09-24T08:51:47.100Z,101643.61
2018-09-24T08:54:21.942Z,101650.34
2018-09-24T08:56:55.754Z,101646.63
2018-09-24T08:59:31.469Z,101650.49
2018-09-24T09:02:05.249Z,101659.78
2018-09-24T09:04:39.937Z,101661.00
2018-09-24T09:07:13.692Z,101661.19
2018-09-24T09:09:48.617Z,101661.70
2018-09-24T09:12:23.520Z,101665.89
2018-09-24T09:14:58.359Z,101663.09
2018-09-24T09:17:32.979Z,101669.92
2018-09-24T09:20:07.725Z,101671.33
2018-09-24T09:22:42.392Z,101682.48
2018-09-24T09:25:17.128Z,101668.64
2018-09-24T09:27:51.801Z,101687.17
2018-09-24T09:30:26.495Z,101685.09
2018-09-24T09:33:02.159Z,101689.91
2018-09-24T09:35:36.902Z,101683.05
2018-09-24T09:38:12.717Z,101693.22
2018-09-24T09:40:47.573Z,101695.27
2018-09-24T09:43:22.320Z,101701.55
2018-09-24T09:45:57.073Z,101706.98
2018-09-24T09:48:31.890Z,101704.50
2018-09-24T09:51:06.461Z,101708.67
2018-09-24T09:53:40.410Z,101710.66
2018-09-24T09:56:14.187Z,101708.44
2018-09-24T09:58:48.749Z,101709.67
2018-09-24T10:01:23.821Z,101714.54
2018-09-24T10:03:58.446Z,101716.69
2018-09-24T10:06:32.136Z,101711.44
2018-09-24T10:09:05.710Z,101709.48
2018-09-24T10:11:40.291Z,101719.28
2018-09-24T10:14:14.033Z,101720.94
2018-09-24T10:16:47.689Z,101726.68
2018-09-24T10:19:22.412Z,101732.83
2018-09-24T10:21:57.009Z,101732.07
2018-09-24T10:24:33.220Z,101735.05
2018-09-24T10:27:07.851Z,101732.13
2018-09-24T10:29:42.865Z,101742.54
2018-09-24T10:32:17.499Z,101743.39
2018-09-24T10:34:52.079Z,101740.03
2018-09-24T10:37:25.793Z,101741.72
2018-09-24T10:39:59.356Z,101750.46
2018-09-24T10:42:32.949Z,101746.38
2018-09-24T10:45:06.493Z,101753.14
2018-09-24T10:47:40.182Z,101746.00
2018-09-24T10:50:13.855Z,101757.02
2018-09-24T10:52:47.624Z,101752.95
2018-09-24T10:55:21.341Z,101756.81
2018-09-24T10:57:55.109Z,101770.50
2018-09-24T11:00:28.826Z,101776.89
2018-09-24T11:03:02.440Z,101767.30
2018-09-24T11:05:36.152Z,101776.03
2018-09-24T11:08:09.893Z,101770.31
2018-09-24T11:10:43.589Z,101779.04
2018-09-24T11:13:17.287Z,101776.17
2018-09-24T11:15:51.097Z,101770.73
2018-09-24T11:18:24.747Z,101786.08
2018-09-24T11:20:58.254Z,101775.06
2018-09-24T11:23:33.066Z,101786.85
2018-09-24T11:26:06.785Z,101777.66
2018-09-24T11:28:42.540Z,101768.34
2018-09-24T11:31:16.265Z,101779.69
2018-09-24T11:33:50.792Z,101769.55
2018-09-24T11:36:24.492Z,101781.83
2018-09-24T11:38:59.209Z,101778.56
2018-09-24T11:41:32.889Z,101783.44
2018-09-24T11:44:07.563Z,101782.80
2018-09-24T11:46:42.221Z,101778.17
2018-09-24T11:49:16.997Z,101780.95
2018-09-24T11:51:51.748Z,101790.82
2018-09-24T11:54:26.456Z,101802.47
2018-09-24T11:57:00.025Z,101779.19
2018-09-24T11:59:34.729Z,101789.22
2018-09-24T12:02:09.268Z,101790.34
2018-09-24T12:04:43.996Z,101806.72
2018-09-24T12:07:18.771Z,101805.09
2018-09-24T12:09:53.899Z,101842.66
2018-09-24T12:12:28.585Z,101857.39
2018-09-24T12:15:03.268Z,101860.92
2018-09-24T12:17:37.993Z,101876.59
2018-09-24T12:20:12.585Z,101871.66
2018-09-24T12:22:47.249Z,101872.05
2018-09-24T12:25:20.869Z,101878.42
2018-09-24T12:27:54.570Z,101884.09
2018-09-24T12:30:29.226Z,101887.53
2018-09-24T12:33:05.061Z,101870.63
2018-09-24T12:35:39.706Z,101876.91
2018-09-24T12:38:14.428Z,101877.37
2018-09-24T12:40:49.201Z,101887.03
2018-09-24T12:43:24.910Z,101902.59
2018-09-24T12:45:59.505Z,101902.31
2018-09-24T12:48:34.740Z,101920.16
2018-09-24T12:51:08.504Z,101931.59
2018-09-24T12:53:42.476Z,101938.14
2018-09-24T12:56:17.149Z,101960.25
2018-09-24T12:58:51.434Z,101945.76
2018-09-24T13:01:26.039Z,101964.52
2018-09-24T13:03:59.835Z,101956.85
2018-09-24T13:06:35.643Z,101957.88
2018-09-24T13:09:09.276Z,101944.92
2018-09-24T13:11:44.090Z,101913.97
2018-09-24T13:14:17.796Z,101900.28
2018-09-24T13:16:52.424Z,101901.61
2018-09-24T13:19:26.142Z,101898.52
2018-09-24T13:22:00.834Z,101899.74
2018-09-24T13:24:36.094Z,101906.77
2018-09-24T13:27:12.021Z,101913.83
2018-09-24T13:29:45.708Z,101908.02
2018-09-24T13:32:20.442Z,101908.78
2018-09-24T13:34:55.166Z,101902.34
2018-09-24T13:37:29.742Z,101898.86
2018-09-24T13:40:05.369Z,101903.83
2018-09-24T13:42:39.157Z,101894.84
2018-09-24T13:45:13.871Z,101897.94
2018-09-24T13:47:48.418Z,101898.00
2018-09-24T13:50:23.932Z,101902.13
2018-09-24T13:52:58.501Z,101896.56
2018-09-24T13:55:40.310Z,101897.41
2018-09-24T13:58:14.393Z,101908.66
2018-09-24T14:00:49.176Z,101917.86
2018-09-24T14:03:25.052Z,101930.62
2018-09-24T14:05:59.644Z,101925.52
2018-09-24T14:08:34.991Z,101911.50
2018-09-24T14:11:09.612Z,101898.31
2018-09-24T14:13:43.232Z,101878.38
2018-09-24T14:16:17.834Z,101870.53
2018-09-24T14:18:51.619Z,101878.98
2018-09-24T14:21:25.571Z,101890.38
2018-09-24T14:24:00.248Z,101893.26
2018-09-24T14:26:33.887Z,101887.97
2018-09-24T14:29:07.573Z,101897.77
2018-09-24T14:31:41.781Z,101905.84
2018-09-24T14:34:15.369Z,101906.61
2018-09-24T14:36:48.952Z,101891.02
2018-09-24T14:39:22.632Z,101894.23
2018-09-24T14:41:57.154Z,101892.99
2018-09-24T14:44:31.518Z,101896.46
2018-09-24T14:47:05.252Z,101890.70
2018-09-24T14:49:38.907Z,101892.92
2018-09-24T14:52:12.885Z,101892.99
2018-09-24T14:54:46.585Z,101892.39
2018-09-24T14:57:20.152Z,101906.01
2018-09-24T14:59:54.553Z,101898.27
2018-09-24T15:02:28.370Z,101899.95
2018-09-24T15:05:02.116Z,101898.45
2018-09-24T15:07:36.876Z,101907.07
2018-09-24T15:10:10.521Z,101907.58
2018-09-24T15:12:44.286Z,101914.17
2018-09-24T15:15:17.877Z,101911.08
2018-09-24T15:17:51.655Z,101906.75
2018-09-24T15:20:25.293Z,101895.37
2018-09-24T15:22:58.929Z,101897.72
2018-09-24T15:25:35.301Z,101898.22
2018-09-24T15:28:08.964Z,101900.70
2018-09-24T15:30:43.137Z,101899.21
2018-09-24T15:33:16.699Z,101908.03
2018-09-24T15:35:50.442Z,101911.36
2018-09-24T15:38:25.251Z,101934.66
2018-09-24T15:40:59.036Z,101938.42
2018-09-24T15:43:32.775Z,101940.03
2018-09-24T15:46:06.445Z,101947.52
2018-09-24T15:48:40.077Z,101948.03
2018-09-24T15:51:13.696Z,101962.30
2018-09-24T15:53:47.552Z,101947.69
2018-09-24T15:56:21.257Z,101942.50
2018-09-24T15:58:54.895Z,101942.73
2018-09-24T16:01:28.710Z,101946.53
2018-09-24T16:04:02.313Z,101935.31
2018-09-24T16:06:35.901Z,101944.80
2018-09-24T16:09:10.477Z,101945.41
2018-09-24T16:11:44.240Z,101944.39
2018-09-24T16:14:17.938Z,101957.32
2018-09-24T16:16:52.716Z,101955.77
2018-09-24T16:19:27.486Z,101954.25
2018-09-24T16:22:02.262Z,101944.82
2018-09-24T16:24:36.020Z,101949.57
2018-09-24T16:27:11.061Z,101947.59
2018-09-24T16:29:45.806Z,101958.41
2018-09-24T16:32:20.470Z,101959.62
2018-09-24T16:34:55.098Z,101957.91
2018-09-24T16:37:29.931Z,101963.62
2018-09-24T16:40:05.301Z,101976.95
2018-09-24T16:42:40.001Z,101965.05
2018-09-24T16:45:14.717Z,101960.58
2018-09-24T16:47:49.302Z,101971.03
2018-09-24T16:50:23.087Z,101972.42
2018-09-24T16:52:57.808Z,101979.02
2018-09-24T16:55:32.297Z,101991.32
2018-09-24T16:58:07.057Z,101983.71
2018-09-24T17:00:41.371Z,101990.24
2018-09-24T17:03:15.002Z,101990.02
2018-09-24T17:05:48.750Z,102000.95
2018-09-24T17:08:22.486Z,102002.40
2018-09-24T17:10:56.234Z,102006.00
2018-09-24T17:13:30.753Z,102009.84
2018-09-24T17:16:05.033Z,102013.84
2018-09-24T17:18:38.759Z,102016.82
2018-09-24T17:21:12.501Z,102016.64
2018-09-24T17:23:47.248Z,102025.83
2018-09-24T17:26:20.990Z,102033.45
2018-09-24T17:28:54.702Z,102032.68
2018-09-24T17:31:28.413Z,102036.91
2018-09-24T17:34:03.225Z,102042.00
2018-09-24T17:36:37.000Z,102048.36
2018-09-24T17:39:13.589Z,102050.52
2018-09-24T17:41:47.429Z,102052.27
2018-09-24T17:44:21.353Z,102052.64
2018-09-24T17:46:56.208Z,102056.25
2018-09-24T17:49:30.087Z,102064.27
2018-09-24T17:52:03.813Z,102063.73
2018-09-24T17:54:37.622Z,102063.33
2018-09-24T17:57:12.266Z,102071.88
2018-09-24T17:59:46.983Z,102070.78
2018-09-24T18:02:20.634Z,102075.91
2018-09-24T18:04:54.710Z,102076.95
2018-09-24T18:07:28.533Z,102080.38
2018-09-24T18:10:02.300Z,102082.23
2018-09-24T18:12:37.066Z,102082.46
2018-09-24T18:15:11.718Z,102083.55
2018-09-24T18:17:45.407Z,102096.30
2018-09-24T18:20:19.128Z,102092.05
2018-09-24T18:22:54.506Z,102103.80
2018-09-24T18:25:29.251Z,102106.55
2018-09-24T18:28:05.052Z,102109.39
2018-09-24T18:30:39.621Z,102119.58
2018-09-24T18:33:14.377Z,102118.10
2018-09-24T18:35:48.050Z,102129.59
2018-09-24T18:38:22.633Z,102132.58
2018-09-24T18:40:56.296Z,102138.13
2018-09-24T18:43:31.772Z,102136.18
2018-09-24T18:46:05.948Z,102133.34
2018-09-24T18:48:39.840Z,102142.42
2018-09-24T18:51:14.653Z,102135.84
2018-09-24T18:53:49.445Z,102135.17
2018-09-24T18:56:23.248Z,102146.02
2018-09-24T18:58:57.865Z,102157.27
2018-09-24T19:01:32.401Z,102157.78
2018-09-24T19:04:07.226Z,102158.02
2018-09-24T19:06:43.208Z,102168.55
2018-09-24T19:09:17.979Z,102167.62
2018-09-24T19:11:52.758Z,102170.08
2018-09-24T19:14:27.553Z,102186.42
2018-09-24T19:17:02.328Z,102189.77
2018-09-24T19:19:36.749Z,102186.64
2018-09-24T19:22:12.062Z,102193.46
2018-09-24T19:24:46.630Z,102200.77
2018-09-24T19:27:20.186Z,102215.94
2018-09-24T19:29:54.532Z,102219.33
2018-09-24T19:32:29.330Z,102231.08
2018-09-24T19:35:02.922Z,102229.02
2018-09-24T19:37:37.567Z,102229.94
2018-09-24T19:40:12.514Z,102230.05
2018-09-24T19:42:46.215Z,102237.22
2018-09-24T19:45:20.837Z,102235.52
2018-09-24T19:47:54.617Z,102238.31
2018-09-24T19:50:28.272Z,102249.08
2018-09-24T19:53:02.789Z,102252.50
2018-09-24T19:55:36.353Z,102252.02
2018-09-24T19:58:10.098Z,102254.56
2018-09-24T20:00:43.792Z,102256.72
2018-09-24T20:03:17.557Z,102259.00
2018-09-24T20:05:51.175Z,102257.81
2018-09-24T20:08:24.968Z,102257.63
2018-09-24T20:10:59.717Z,102266.53
2018-09-24T20:13:34.176Z,102270.70
2018-09-24T20:16:07.853Z,102276.03
2018-09-24T20:18:42.533Z,102277.37
2018-09-24T20:21:16.128Z,102277.48
2018-09-24T20:23:50.070Z,102287.72
2018-09-24T20:26:24.175Z,102289.50
2018-09-24T20:28:58.752Z,102283.67
2018-09-24T20:31:32.448Z,102289.71
2018-09-24T20:34:06.064Z,102299.66
2018-09-24T20:36:39.638Z,102292.70
2018-09-24T20:39:14.066Z,102298.37
2018-09-24T20:41:48.974Z,102299.83
2018-09-24T20:44:24.215Z,102304.16
2018-09-24T20:46:58.258Z,102310.87
2018-09-24T20:49:32.639Z,102318.43
2018-09-24T20:52:06.389Z,102321.48
2018-09-24T20:54:39.971Z,102321.46
2018-09-24T20:57:13.654Z,102318.38
2018-09-24T20:59:48.265Z,102327.75
2018-09-24T21:02:22.125Z,102330.42
2018-09-24T21:04:55.923Z,102332.28
2018-09-24T21:07:31.517Z,102339.20
2018-09-24T21:10:06.213Z,102344.75
2018-09-24T21:12:39.785Z,102352.39
2018-09-24T21:15:13.519Z,102354.20
2018-09-24T21:17:48.253Z,102362.64
2018-09-24T21:20:22.004Z,102365.48
2018-09-24T21:22:56.773Z,102369.20
2018-09-24T21:25:32.514Z,102372.92
2018-09-24T21:28:06.233Z,102370.22
2018-09-24T21:30:41.700Z,102375.56
2018-09-24T21:33:16.360Z,102375.37
2018-09-24T21:35:50.233Z,102381.12
2018-09-24T21:38:23.957Z,102384.05
2018-09-24T21:40:57.689Z,102383.25
2018-09-24T21:43:32.456Z,102379.28
2018-09-24T21:46:06.291Z,102386.87
2018-09-24T21:48:41.759Z,102397.03
2018-09-24T21:51:16.537Z,102389.30
2018-09-24T21:53:51.202Z,102386.91
2018-09-24T21:56:25.946Z,102388.34
2018-09-24T21:59:00.637Z,102390.19
2018-09-24T22:01:35.225Z,102387.91
2018-09-24T22:04:09.000Z,102392.98
2018-09-24T22:06:43.785Z,102394.06
2018-09-24T22:09:18.512Z,102393.36
2018-09-24T22:11:52.262Z,102403.98
2018-09-24T22:14:26.837Z,102406.31
2018-09-24T22:17:02.616Z,102403.45
2018-09-24T22:19:36.334Z,102409.56
2018-09-24T22:22:09.920Z,102417.52
2018-09-24T22:24:43.538Z,102408.12
2018-09-24T22:27:17.249Z,102419.41
2018-09-24T22:29:51.089Z,102416.37
2018-09-24T22:32:24.796Z,102419.83
2018-09-24T22:34:59.524Z,102423.08
2018-09-24T22:37:33.161Z,102424.12
2018-09-24T22:40:06.765Z,102428.94
2018-09-24T22:42:42.032Z,102426.58
2018-09-24T22:45:15.789Z,102433.34
2018-09-24T22:47:50.528Z,102443.64
2018-09-24T22:50:25.261Z,102451.95
2018-09-24T22:52:59.833Z,102450.85
2018-09-24T22:55:40.325Z,102451.99
2018-09-24T22:58:15.193Z,102446.94
2018-09-24T23:00:49.066Z,102452.30
2018-09-24T23:03:22.865Z,102455.03
2018-09-24T23:05:56.524Z,102450.27
2018-09-24T23:08:30.241Z,102451.41
2018-09-24T23:11:05.045Z,102448.40
2018-09-24T23:13:39.629Z,102453.74
2018-09-24T23:16:14.328Z,102460.60
2018-09-24T23:18:49.017Z,102464.84
2018-09-24T23:21:22.765Z,102467.33
2018-09-24T23:23:56.481Z,102469.47
2018-09-24T23:26:30.802Z,102470.48
2018-09-24T23:29:05.633Z,102471.50
2018-09-24T23:31:40.419Z,102474.95
2018-09-24T23:34:15.229Z,102470.56
2018-09-24T23:36:50.072Z,102475.49
2018-09-24T23:39:24.789Z,102477.56
2018-09-24T23:41:59.609Z,102484.64
2018-09-24T23:44:34.842Z,102481.57
2018-09-24T23:47:09.426Z,102487.84
2018-09-24T23:49:42.997Z,102486.85
2018-09-24T23:52:17.833Z,102490.21
2018-09-24T23:54:52.577Z,102499.00
2018-09-24T23:57:26.341Z,102505.98
